Time;durP1;ratioP1;P1;durP2;ratioP2;P2;SDS_P1;SDS_P2;PMS_P1;PMS_P2;Temp;Humidity;BMP_temperature;BMP_pressure;BME280_temperature;BME280_humidity;BME280_pressure;Samples;Min_cycle;Max_cycle;Signal;HPM_P1;HPM_P2
2023/01/25 07:48:57;;;;;;;41.20;19.17;;;0.20;99.90;;;;;;5042899;28;20033;-88
2023/01/25 07:51:26;;;;;;;41.67;19.20;;;0.20;99.90;;;;;;5027934;28;20418;-88
2023/01/25 07:53:53;;;;;;;40.53;20.02;;;0.10;99.90;;;;;;5026865;28;20071;-90
2023/01/25 07:56:21;;;;;;;42.33;21.95;;;0.10;99.90;;;;;;5028467;28;20052;-94
2023/01/25 07:58:46;;;;;;;38.08;17.83;;;0.10;99.90;;;;;;5038508;28;20382;-94
2023/01/25 08:01:15;;;;;;;39.75;18.58;;;0.10;99.90;;;;;;5037277;28;20071;-93
2023/01/25 08:03:42;;;;;;;44.10;22.27;;;0.10;99.90;;;;;;5034979;28;20048;-90
2023/01/25 08:06:09;;;;;;;40.60;19.90;;;0.00;99.90;;;;;;5054377;28;20048;-89
2023/01/25 08:08:42;;;;;;;43.47;21.25;;;0.00;99.90;;;;;;5054049;28;20064;-91
2023/01/25 08:11:13;;;;;;;41.97;20.98;;;0.00;99.90;;;;;;5056503;28;20037;-91
2023/01/25 08:13:40;;;;;;;40.67;19.35;;;0.00;99.90;;;;;;5033521;28;20045;-92
2023/01/25 08:16:06;;;;;;;39.80;18.75;;;0.00;99.90;;;;;;5053985;28;20048;-91
2023/01/25 08:18:32;;;;;;;40.70;20.05;;;0.10;99.90;;;;;;5034922;28;20167;-91
2023/01/25 08:20:59;;;;;;;40.15;19.92;;;0.10;99.90;;;;;;5039764;28;20049;-92
2023/01/25 08:23:25;;;;;;;40.55;20.85;;;0.10;99.90;;;;;;5050108;28;20072;-91
2023/01/25 08:25:50;;;;;;;41.50;19.98;;;0.10;99.90;;;;;;5053510;28;20048;-92
2023/01/25 08:28:16;;;;;;;40.45;20.00;;;0.10;99.90;;;;;;5036086;28;20079;-92
2023/01/25 08:30:42;;;;;;;40.22;20.25;;;0.10;99.90;;;;;;5052932;28;20056;-91
2023/01/25 08:33:07;;;;;;;40.75;18.90;;;0.10;99.90;;;;;;5035605;28;20093;-91
2023/01/25 08:35:35;;;;;;;36.28;19.33;;;0.10;99.90;;;;;;5052546;28;20509;-90
2023/01/25 08:38:01;;;;;;;42.33;20.00;;;0.10;99.90;;;;;;5031058;28;20045;-89
2023/01/25 08:40:27;;;;;;;39.88;19.73;;;0.10;99.90;;;;;;5031215;28;20520;-87
2023/01/25 08:42:52;;;;;;;41.78;20.05;;;0.10;99.90;;;;;;5034388;28;20076;-89
2023/01/25 08:45:18;;;;;;;44.33;21.73;;;0.10;99.90;;;;;;5051176;28;20122;-91
2023/01/25 08:47:44;;;;;;;47.60;22.25;;;0.10;99.90;;;;;;5021165;28;20053;-88
2023/01/25 08:50:10;;;;;;;44.00;20.63;;;0.10;99.90;;;;;;5029485;28;20042;-92
2023/01/25 08:52:35;;;;;;;41.10;21.45;;;0.10;99.90;;;;;;5028767;28;20045;-93
2023/01/25 08:55:01;;;;;;;41.08;18.80;;;0.10;99.90;;;;;;5001994;28;20487;-91
2023/01/25 08:57:27;;;;;;;40.97;18.45;;;0.10;99.90;;;;;;4999588;28;20095;-91
2023/01/25 08:59:53;;;;;;;43.13;19.58;;;0.20;99.90;;;;;;5017529;28;20490;-95
2023/01/25 09:02:20;;;;;;;44.38;21.55;;;0.20;99.90;;;;;;4995543;28;20076;-92
2023/01/25 09:04:46;;;;;;;43.65;23.17;;;0.20;99.90;;;;;;5010798;28;20114;-93
2023/01/25 09:07:11;;;;;;;41.60;21.60;;;0.20;99.90;;;;;;5006976;28;20074;-94
2023/01/25 09:09:37;;;;;;;43.05;20.13;;;0.20;99.90;;;;;;4996894;28;20069;-93
2023/01/25 09:12:03;;;;;;;44.88;20.15;;;0.20;99.90;;;;;;5018613;28;20056;-92
2023/01/25 09:14:29;;;;;;;46.03;21.63;;;0.10;99.90;;;;;;5029282;28;20112;-93
2023/01/25 09:16:54;;;;;;;43.33;21.80;;;0.10;99.90;;;;;;5031327;28;20120;-96
2023/01/25 09:19:20;;;;;;;43.35;22.33;;;0.20;99.90;;;;;;5019612;28;20121;-93
2023/01/25 09:21:47;;;;;;;45.15;20.02;;;0.10;99.90;;;;;;5015455;28;20037;-95
2023/01/25 09:24:13;;;;;;;40.92;20.80;;;0.20;99.90;;;;;;5029487;28;20041;-93
2023/01/25 09:26:41;;;;;;;43.30;19.67;;;0.20;99.90;;;;;;5011205;28;20037;-94
2023/01/25 09:29:07;;;;;;;48.40;22.23;;;0.20;99.90;;;;;;5016571;28;20041;-93
2023/01/25 09:31:33;;;;;;;41.40;19.80;;;0.20;99.90;;;;;;5021093;28;20092;-94
2023/01/25 09:33:59;;;;;;;45.25;19.88;;;0.20;99.90;;;;;;5016194;28;20045;-94
2023/01/25 09:36:25;;;;;;;43.97;18.35;;;0.20;99.90;;;;;;5017117;28;20080;-91
2023/01/25 09:38:51;;;;;;;39.03;18.67;;;0.10;99.90;;;;;;5013752;28;20045;-93
2023/01/25 09:41:29;;;;;;;39.70;20.45;;;0.20;99.90;;;;;;5014297;28;20116;-90
2023/01/25 09:44:11;;;;;;;34.08;17.30;;;0.20;99.90;;;;;;4989140;28;20064;-93
2023/01/25 09:46:54;;;;;;;35.45;16.73;;;0.10;99.90;;;;;;5018364;28;20049;-95
2023/01/25 09:49:25;;;;;;;36.25;16.25;;;0.10;99.90;;;;;;5033630;28;20040;-93
2023/01/25 09:52:19;;;;;;;36.95;17.92;;;0.10;99.90;;;;;;5037362;28;20493;-92
2023/01/25 09:54:46;;;;;;;37.83;17.90;;;0.10;99.90;;;;;;4921327;29;20143;-93
2023/01/25 09:57:19;;;;;;;40.05;19.00;;;0.10;99.90;;;;;;4935171;29;20090;-94
2023/01/25 09:59:48;;;;;;;42.50;21.23;;;0.10;99.90;;;;;;4924908;29;20056;-95
2023/01/25 10:02:39;;;;;;;45.53;20.27;;;0.10;99.90;;;;;;4949732;29;20048;-92
2023/01/25 10:05:17;;;;;;;40.80;17.70;;;0.10;99.90;;;;;;4929320;29;20051;-92
2023/01/25 10:08:24;;;;;;;39.35;18.77;;;0.10;99.90;;;;;;4927343;29;20052;-92
2023/01/25 10:10:57;;;;;;;36.50;15.82;;;0.10;99.90;;;;;;4905263;29;20060;-92
2023/01/25 10:13:23;;;;;;;39.67;17.63;;;0.20;99.90;;;;;;4906131;29;20099;-95
2023/01/25 10:15:54;;;;;;;37.50;18.20;;;0.20;99.90;;;;;;4929106;29;20056;-94
2023/01/25 10:18:26;;;;;;;38.85;16.45;;;0.20;99.90;;;;;;4922084;29;20059;-96
2023/01/25 10:21:00;;;;;;;37.50;16.50;;;0.20;99.90;;;;;;4907754;29;20047;-95
2023/01/25 13:00:57;;;;;;;38.35;17.45;;;0.10;99.90;;;;;;2751325;23;20050;-95
2023/01/25 13:03:51;;;;;;;44.25;18.38;;;0.10;99.90;;;;;;5003273;28;20098;-93
2023/01/25 13:06:29;;;;;;;41.80;17.70;;;0.20;99.90;;;;;;4995358;28;20104;-92
2023/01/25 13:09:15;;;;;;;39.45;16.67;;;0.10;99.90;;;;;;4997269;28;20109;-93
2023/01/25 13:11:43;;;;;;;40.05;16.25;;;0.10;99.90;;;;;;4996872;28;20540;-94
2023/01/25 13:14:14;;;;;;;43.08;18.02;;;0.10;99.90;;;;;;4991184;28;20049;-93
2023/01/25 13:16:51;;;;;;;32.80;15.27;;;0.10;99.90;;;;;;4993359;28;20049;-94
2023/01/25 13:19:21;;;;;;;34.95;15.77;;;0.00;99.90;;;;;;4994390;28;20045;-92
2023/01/25 13:21:48;;;;;;;42.20;16.40;;;0.00;99.90;;;;;;4991353;28;20035;-94
2023/01/25 13:24:23;;;;;;;38.42;16.58;;;0.00;99.90;;;;;;4993749;28;20035;-93
2023/01/25 13:26:54;;;;;;;41.78;16.58;;;0.00;99.90;;;;;;4998369;28;20041;-93
2023/01/25 13:29:38;;;;;;;43.55;19.98;;;0.00;99.90;;;;;;5000153;28;20074;-92
2023/01/25 13:32:23;;;;;;;38.72;16.77;;;0.00;99.90;;;;;;4999368;28;20046;-88
2023/01/25 13:34:48;;;;;;;45.33;19.00;;;0.00;99.90;;;;;;5003736;28;20431;-95
2023/01/25 13:37:18;;;;;;;40.63;16.90;;;0.00;99.90;;;;;;5023894;28;20046;-93
2023/01/25 13:39:45;;;;;;;38.72;17.25;;;0.00;99.90;;;;;;5024666;28;20178;-93
2023/01/25 13:42:11;;;;;;;37.42;15.63;;;0.00;99.90;;;;;;4998984;28;20042;-92
2023/01/25 13:44:42;;;;;;;38.35;16.55;;;0.10;99.90;;;;;;5001613;28;20403;-93
2023/01/25 13:47:12;;;;;;;;;;;0.10;99.90;;;;;;5019772;28;20038;-93
2023/01/25 13:49:59;;;;;;;34.65;14.23;;;0.00;99.90;;;;;;5016038;28;20374;-92
2023/01/25 13:52:27;;;;;;;36.78;17.33;;;0.00;99.90;;;;;;5017420;28;20034;-93
2023/01/25 13:54:57;;;;;;;40.13;15.60;;;0.00;99.90;;;;;;4998253;28;20061;-89
2023/01/25 14:00:01;;;;;;;35.45;14.95;;;0.00;99.90;;;;;;5046061;28;20040;-95
2023/01/25 14:02:27;;;;;;;36.85;13.98;;;0.00;99.90;;;;;;5046476;28;20049;-95
2023/01/25 15:14:45;;;;;;;40.30;17.80;;;-0.10;99.90;;;;;;2950068;23;20505;-96
2023/01/25 15:17:35;;;;;;;43.38;17.42;;;-0.10;99.90;;;;;;5037330;28;20072;-96
2023/01/25 15:20:03;;;;;;;43.78;18.67;;;-0.10;99.90;;;;;;5039367;28;20038;-95
2023/01/25 15:22:29;;;;;;;42.80;16.98;;;-0.10;99.90;;;;;;5047077;28;20037;-96
2023/01/25 17:15:08;;;;;;;56.90;22.40;;;-0.20;99.90;;;;;;998521;22;20364;-96
2023/01/25 17:17:34;;;;;;;58.30;21.52;;;-0.20;99.90;;;;;;5059840;28;20132;-95
2023/01/25 17:19:59;;;;;;;48.55;18.30;;;-0.20;99.90;;;;;;5063833;28;20085;-93
2023/01/25 17:22:25;;;;;;;55.72;21.15;;;-0.20;99.90;;;;;;5064376;28;20053;-95
2023/01/25 17:24:54;;;;;;;55.60;22.17;;;-0.20;99.90;;;;;;5131456;22;20061;-96
2023/01/25 17:27:22;;;;;;;57.72;23.42;;;-0.20;99.90;;;;;;5107606;22;20036;-94
2023/01/25 17:29:47;;;;;;;58.13;21.35;;;-0.10;99.90;;;;;;5052701;28;20026;-91
2023/01/25 17:32:13;;;;;;;56.72;22.00;;;-0.10;99.90;;;;;;5013818;28;20033;-90
2023/01/25 17:34:39;;;;;;;56.83;22.17;;;-0.10;99.90;;;;;;5020673;28;20074;-89
2023/01/25 17:37:04;;;;;;;54.60;21.92;;;-0.10;99.90;;;;;;4999041;28;20056;-90
2023/01/25 17:39:31;;;;;;;56.38;22.27;;;-0.10;99.90;;;;;;5027930;28;20522;-89
2023/01/25 17:41:57;;;;;;;67.72;26.05;;;-0.10;99.90;;;;;;5033908;28;20077;-91
2023/01/25 17:44:23;;;;;;;61.95;23.38;;;-0.10;99.90;;;;;;4998977;28;20048;-91
2023/01/25 17:46:49;;;;;;;64.60;24.45;;;-0.10;99.90;;;;;;5015010;28;20041;-89
2023/01/25 17:49:16;;;;;;;60.90;23.00;;;-0.10;99.90;;;;;;5028700;28;20104;-90
2023/01/25 17:51:42;;;;;;;62.17;23.10;;;-0.10;99.90;;;;;;5014993;28;20402;-91
2023/01/25 17:54:09;;;;;;;57.63;21.73;;;-0.10;99.90;;;;;;5011542;28;20049;-90
2023/01/25 17:56:35;;;;;;;66.53;24.27;;;-0.10;99.90;;;;;;5007622;28;20044;-90
2023/01/25 17:59:01;;;;;;;61.60;22.77;;;-0.10;99.90;;;;;;5044938;28;20064;-91
2023/01/25 18:01:28;;;;;;;61.10;24.00;;;-0.10;99.90;;;;;;5048971;28;20728;-89
2023/01/25 18:03:55;;;;;;;61.15;23.83;;;-0.20;99.90;;;;;;5045331;28;20065;-92
2023/01/25 18:06:23;;;;;;;58.67;22.60;;;-0.10;99.90;;;;;;5031377;28;20049;-91
2023/01/25 18:08:51;;;;;;;56.80;21.50;;;-0.10;99.90;;;;;;5046711;28;20026;-90
2023/01/25 18:11:20;;;;;;;71.10;24.45;;;-0.20;99.90;;;;;;5049695;28;20047;-90
2023/01/25 18:13:48;;;;;;;69.53;25.80;;;-0.10;99.90;;;;;;5041084;28;20026;-91
2023/01/25 18:16:16;;;;;;;72.30;25.40;;;-0.20;99.90;;;;;;5018295;28;20088;-91
2023/01/25 18:18:43;;;;;;;62.50;23.70;;;-0.20;99.90;;;;;;5023583;28;20554;-90
2023/01/25 18:21:11;;;;;;;79.70;28.30;;;-0.10;99.90;;;;;;5036426;28;20052;-91
2023/01/25 18:23:39;;;;;;;62.40;23.80;;;-0.20;99.90;;;;;;5031464;28;20053;-90
2023/01/25 18:26:07;;;;;;;65.90;25.05;;;-0.10;99.90;;;;;;5031433;28;20048;-90
2023/01/25 18:28:34;;;;;;;61.40;24.02;;;-0.10;99.90;;;;;;5028214;28;20042;-89
2023/01/25 18:31:04;;;;;;;62.38;23.15;;;-0.10;99.90;;;;;;5030539;28;20044;-91
2023/01/25 18:33:32;;;;;;;63.75;23.20;;;-0.10;99.90;;;;;;5021264;28;20096;-90
2023/01/25 18:35:58;;;;;;;59.88;22.63;;;-0.10;99.90;;;;;;5005659;28;20106;-90
2023/01/25 18:38:25;;;;;;;67.13;25.35;;;-0.10;99.90;;;;;;5013152;28;20041;-91
2023/01/25 18:40:51;;;;;;;68.28;27.33;;;-0.10;99.90;;;;;;5008904;28;20042;-91
2023/01/25 18:43:17;;;;;;;65.35;24.70;;;-0.10;99.90;;;;;;5009095;28;20037;-90
2023/01/25 18:45:42;;;;;;;67.00;24.85;;;-0.10;99.90;;;;;;5012522;28;20448;-87
2023/01/25 18:48:12;;;;;;;69.40;24.25;;;-0.10;99.90;;;;;;5006510;28;20526;-87
2023/01/25 18:50:41;;;;;;;65.75;23.83;;;-0.10;99.90;;;;;;4983599;28;20162;-87
2023/01/25 18:53:08;;;;;;;69.07;23.50;;;-0.10;99.90;;;;;;5021592;28;20069;-85
2023/01/25 18:55:37;;;;;;;75.03;25.23;;;-0.10;99.90;;;;;;5000177;28;20041;-88
2023/01/25 18:58:03;;;;;;;71.68;27.10;;;-0.10;99.90;;;;;;4995663;28;20038;-87
2023/01/25 19:00:31;;;;;;;61.10;20.83;;;-0.10;99.90;;;;;;5022376;28;20081;-87
2023/01/25 19:02:57;;;;;;;71.95;25.63;;;-0.10;99.90;;;;;;5022704;28;20115;-87
2023/01/25 19:05:22;;;;;;;61.78;24.27;;;-0.10;99.90;;;;;;5007625;28;20041;-87
2023/01/25 19:07:48;;;;;;;68.20;24.23;;;-0.10;99.90;;;;;;5006632;28;20064;-87
2023/01/25 19:10:14;;;;;;;67.90;24.13;;;-0.10;99.90;;;;;;5021552;28;20041;-87
2023/01/25 19:12:39;;;;;;;64.97;24.15;;;-0.10;99.90;;;;;;4987610;28;20036;-87
2023/01/25 19:15:06;;;;;;;61.42;22.55;;;-0.10;99.90;;;;;;5004323;28;20388;-88
2023/01/25 19:17:31;;;;;;;69.13;23.88;;;-0.10;99.90;;;;;;5005657;28;20063;-88
2023/01/25 19:19:57;;;;;;;59.47;23.80;;;-0.10;99.90;;;;;;5025269;28;20037;-87
2023/01/25 19:22:24;;;;;;;63.33;22.77;;;-0.10;99.90;;;;;;5022835;28;20034;-88
2023/01/25 19:24:50;;;;;;;71.40;26.23;;;-0.10;99.90;;;;;;5025779;28;20116;-88
2023/01/25 19:27:15;;;;;;;72.50;24.42;;;-0.10;99.90;;;;;;5015257;28;20145;-87
2023/01/25 19:29:41;;;;;;;71.53;24.48;;;-0.10;99.90;;;;;;4986658;28;20033;-87
2023/01/25 19:32:09;;;;;;;39.85;16.10;;;-0.10;99.90;;;;;;4995642;28;20489;-87
2023/01/25 19:34:35;;;;;;;65.53;21.70;;;-0.10;99.90;;;;;;5019558;28;20049;-87
2023/01/25 19:37:01;;;;;;;54.38;20.73;;;-0.10;99.90;;;;;;5006069;28;20046;-88
2023/01/25 19:39:27;;;;;;;67.90;26.88;;;-0.10;99.90;;;;;;5008888;28;20045;-87
2023/01/25 19:41:53;;;;;;;69.72;25.10;;;-0.10;99.90;;;;;;5001668;28;20037;-87
2023/01/25 19:44:19;;;;;;;62.58;21.65;;;-0.10;99.90;;;;;;5017115;28;20037;-87
2023/01/25 19:46:45;;;;;;;68.18;25.17;;;-0.10;99.90;;;;;;5025503;28;20053;-88
2023/01/25 19:49:12;;;;;;;61.20;24.48;;;-0.10;99.90;;;;;;5021723;28;20490;-86
2023/01/25 19:51:40;;;;;;;60.75;24.20;;;-0.10;99.90;;;;;;5020579;28;20049;-87
2023/01/25 19:54:15;;;;;;;61.88;26.05;;;-0.10;99.90;;;;;;5026160;28;20109;-87
2023/01/25 19:56:42;;;;;;;64.95;22.77;;;-0.10;99.90;;;;;;5001181;28;20099;-87
2023/01/25 19:59:13;;;;;;;66.55;25.80;;;-0.10;99.90;;;;;;5000394;28;20068;-87
2023/01/25 20:01:44;;;;;;;56.30;21.45;;;-0.10;99.90;;;;;;5008721;28;20037;-87
2023/01/25 20:04:15;;;;;;;51.30;19.77;;;-0.10;99.90;;;;;;5022230;28;20076;-87
2023/01/25 20:06:41;;;;;;;54.67;20.05;;;-0.10;99.90;;;;;;4984789;28;20375;-87
2023/01/25 20:09:07;;;;;;;59.92;23.38;;;-0.10;99.90;;;;;;5009132;28;20363;-87
2023/01/25 20:11:33;;;;;;;64.68;24.15;;;-0.10;99.90;;;;;;5025105;28;20058;-87
2023/01/25 20:14:02;;;;;;;62.95;23.52;;;-0.10;99.90;;;;;;5023639;28;20033;-87
2023/01/25 20:16:29;;;;;;;61.85;23.38;;;-0.10;99.90;;;;;;5017560;28;20088;-86
2023/01/25 20:18:55;;;;;;;60.72;22.55;;;-0.10;99.90;;;;;;5024787;28;20044;-87
2023/01/25 20:21:22;;;;;;;59.88;23.58;;;-0.10;99.90;;;;;;5030334;28;20175;-87
2023/01/25 20:23:59;;;;;;;66.47;24.70;;;-0.10;99.90;;;;;;5030717;28;20171;-86
2023/01/25 20:26:27;;;;;;;71.00;25.42;;;-0.10;99.90;;;;;;5007896;28;20049;-86
2023/01/25 20:28:55;;;;;;;67.25;24.25;;;-0.10;99.90;;;;;;5002937;28;20533;-87
2023/01/25 20:31:28;;;;;;;62.47;21.67;;;-0.10;99.90;;;;;;4992291;28;20044;-87
2023/01/25 20:33:56;;;;;;;54.05;20.48;;;-0.10;99.90;;;;;;5036701;28;20041;-87
2023/01/25 20:36:22;;;;;;;58.58;20.50;;;-0.10;99.90;;;;;;5025825;28;20053;-86
2023/01/25 20:38:48;;;;;;;61.30;21.80;;;-0.10;99.90;;;;;;5003250;28;20060;-86
2023/01/25 20:41:16;;;;;;;62.33;22.83;;;-0.10;99.90;;;;;;5004408;28;20038;-86
2023/01/25 20:43:49;;;;;;;64.50;23.42;;;-0.10;99.90;;;;;;5005238;28;20037;-88
2023/01/25 20:46:15;;;;;;;55.25;22.27;;;-0.10;99.90;;;;;;5007644;28;20088;-87
2023/01/25 20:48:41;;;;;;;62.90;21.52;;;-0.10;99.90;;;;;;5011172;28;20532;-87
2023/01/25 20:51:09;;;;;;;58.22;22.20;;;-0.10;99.90;;;;;;5001638;28;20088;-88
2023/01/25 20:53:35;;;;;;;54.30;19.90;;;-0.10;99.90;;;;;;5011679;28;20037;-86
2023/01/25 20:56:01;;;;;;;54.15;19.92;;;-0.10;99.90;;;;;;4993734;28;20040;-86
2023/01/25 20:58:27;;;;;;;59.88;22.90;;;-0.10;99.90;;;;;;5007367;28;20510;-86
2023/01/25 21:00:53;;;;;;;55.95;20.20;;;0.00;99.90;;;;;;5023024;28;20041;-87
2023/01/25 21:03:20;;;;;;;63.88;22.48;;;-0.10;99.90;;;;;;4999697;28;20040;-88
2023/01/25 21:05:54;;;;;;;54.30;21.27;;;0.00;99.90;;;;;;5008733;28;20037;-86
2023/01/25 21:08:20;;;;;;;52.13;21.08;;;0.00;99.90;;;;;;5024115;28;20045;-87
2023/01/25 21:10:50;;;;;;;53.00;19.95;;;0.00;99.90;;;;;;5005006;28;20081;-88
2023/01/25 21:13:17;;;;;;;61.70;22.33;;;0.00;99.90;;;;;;5002415;28;20407;-87
2023/01/25 21:15:55;;;;;;;56.97;22.30;;;0.00;99.90;;;;;;5005803;28;20379;-87
2023/01/25 21:18:21;;;;;;;47.58;18.90;;;0.00;99.90;;;;;;5025721;28;20481;-88
2023/01/25 21:20:46;;;;;;;46.38;18.08;;;0.00;99.90;;;;;;5005512;28;20052;-86
2023/01/25 21:23:12;;;;;;;47.95;17.52;;;0.00;99.90;;;;;;5002508;28;20046;-84
2023/01/25 21:25:37;;;;;;;49.42;18.63;;;0.00;99.90;;;;;;4998263;28;20048;-88
2023/01/25 21:28:03;;;;;;;54.78;20.45;;;0.00;99.90;;;;;;5025702;28;20098;-88
2023/01/25 21:30:29;;;;;;;56.20;20.75;;;0.00;99.90;;;;;;5022418;28;20049;-88
2023/01/25 21:32:55;;;;;;;47.75;18.95;;;0.00;99.90;;;;;;5013821;28;20443;-89
2023/01/25 21:35:20;;;;;;;59.33;20.60;;;0.00;99.90;;;;;;5003173;28;20097;-88
2023/01/25 21:37:49;;;;;;;51.83;20.58;;;0.00;99.90;;;;;;4985386;28;20056;-89
2023/01/25 21:40:15;;;;;;;53.15;21.75;;;0.00;99.90;;;;;;5005853;28;20060;-88
2023/01/25 21:42:40;;;;;;;50.38;19.75;;;0.00;99.90;;;;;;5026526;28;20389;-88
2023/01/25 21:47:57;;;;;;;57.17;19.80;;;0.00;99.90;;;;;;5026095;28;20045;-89
2023/01/25 21:53:08;;;;;;;43.47;18.33;;;0.10;99.90;;;;;;5025135;28;20297;-89
2023/01/25 21:55:33;;;;;;;42.05;17.27;;;0.10;99.90;;;;;;5003915;28;20049;-87
2023/01/25 21:57:59;;;;;;;42.47;16.25;;;0.10;99.90;;;;;;4998697;28;20041;-88
2023/01/25 22:00:24;;;;;;;45.92;17.35;;;0.00;99.90;;;;;;5016084;28;20050;-86
2023/01/25 22:02:50;;;;;;;47.92;18.83;;;0.10;99.90;;;;;;5019871;28;20112;-86
2023/01/25 22:05:16;;;;;;;43.17;17.10;;;0.00;99.90;;;;;;5006761;28;20052;-88
2023/01/25 22:07:42;;;;;;;51.10;19.80;;;0.10;99.90;;;;;;5022719;28;20059;-88
2023/01/25 22:10:08;;;;;;;46.95;16.48;;;0.00;99.90;;;;;;5006230;28;20063;-87
2023/01/25 22:12:34;;;;;;;52.13;17.70;;;0.00;99.90;;;;;;5010527;28;20119;-88
2023/01/25 22:15:00;;;;;;;42.17;16.88;;;0.10;99.90;;;;;;5031455;28;20076;-87
2023/01/25 22:17:27;;;;;;;43.67;17.05;;;0.10;99.90;;;;;;5009205;28;20077;-87
2023/01/25 22:19:52;;;;;;;43.92;15.75;;;0.00;99.90;;;;;;5006772;28;20056;-87
2023/01/25 22:22:18;;;;;;;42.95;16.40;;;0.10;99.90;;;;;;5009828;28;20398;-87
2023/01/25 22:24:45;;;;;;;40.65;14.90;;;0.00;99.90;;;;;;5018217;28;20042;-87
2023/01/25 22:27:27;;;;;;;43.42;16.92;;;0.00;99.90;;;;;;5021207;28;20386;-87
2023/01/25 22:29:52;;;;;;;;;;;0.00;99.90;;;;;;5021933;28;20045;-87
2023/01/25 22:32:18;;;;;;;39.67;14.88;;;0.00;99.90;;;;;;5001795;28;20392;-87
2023/01/25 22:34:43;;;;;;;44.17;18.48;;;0.00;99.90;;;;;;4992803;28;20042;-87
2023/01/25 22:37:10;;;;;;;44.88;17.75;;;0.00;99.90;;;;;;4999779;28;20041;-87
2023/01/25 22:39:36;;;;;;;47.60;18.40;;;0.00;99.90;;;;;;4993644;28;20046;-87
2023/01/25 22:42:01;;;;;;;40.45;18.15;;;0.00;99.90;;;;;;5000434;28;20486;-87
2023/01/25 22:44:27;;;;;;;43.58;17.48;;;0.00;99.90;;;;;;4992294;28;20048;-87
2023/01/25 22:46:53;;;;;;;45.28;16.80;;;0.00;99.90;;;;;;4991394;28;20476;-87
2023/01/25 22:49:18;;;;;;;45.50;18.42;;;0.00;99.90;;;;;;5000419;28;20045;-88
2023/01/25 22:51:44;;;;;;;42.92;17.73;;;0.00;99.90;;;;;;5019536;28;20064;-87
2023/01/25 22:54:09;;;;;;;46.75;17.40;;;0.00;99.90;;;;;;5005225;28;20033;-87
2023/01/25 22:56:35;;;;;;;43.85;17.05;;;0.00;99.90;;;;;;5026425;28;20124;-86
2023/01/25 22:59:01;;;;;;;55.67;19.55;;;0.00;99.90;;;;;;5001950;28;20042;-87
2023/01/25 23:01:30;;;;;;;49.72;19.02;;;0.00;99.90;;;;;;5012240;28;20057;-87
2023/01/25 23:03:56;;;;;;;42.17;16.73;;;0.00;99.90;;;;;;4999409;28;20494;-87
2023/01/25 23:06:26;;;;;;;45.78;18.13;;;0.00;99.90;;;;;;5017316;28;20057;-87
2023/01/25 23:08:58;;;;;;;48.50;18.52;;;0.00;99.90;;;;;;5027437;28;20071;-87
2023/01/25 23:11:30;;;;;;;45.10;17.05;;;0.00;99.90;;;;;;5026590;28;20481;-87
2023/01/25 23:16:42;;;;;;;44.03;17.65;;;0.00;99.90;;;;;;5024597;28;20068;-87
2023/01/25 23:19:08;;;;;;;39.35;15.95;;;0.00;99.90;;;;;;5012679;28;20038;-87
2023/01/25 23:21:34;;;;;;;45.30;16.27;;;0.00;99.90;;;;;;5012583;28;20466;-87
2023/01/25 23:24:02;;;;;;;41.45;16.75;;;0.00;99.90;;;;;;5012303;28;20045;-87
2023/01/25 23:26:36;;;;;;;40.40;16.10;;;0.00;99.90;;;;;;4998271;28;20053;-87
2023/01/25 23:29:03;;;;;;;43.65;16.05;;;0.00;99.90;;;;;;5028325;28;20445;-87
2023/01/25 23:31:29;;;;;;;37.25;13.55;;;0.00;99.90;;;;;;5013655;28;20076;-87
2023/01/25 23:33:58;;;;;;;36.80;13.50;;;0.10;99.90;;;;;;5008695;28;20053;-88
2023/01/25 23:36:26;;;;;;;49.45;16.00;;;0.00;99.90;;;;;;4998865;28;20116;-86
2023/01/25 23:38:53;;;;;;;41.42;14.23;;;0.00;99.90;;;;;;5011987;28;20045;-88
2023/01/25 23:41:20;;;;;;;44.30;17.58;;;0.00;99.90;;;;;;5030625;28;20042;-87
2023/01/25 23:43:47;;;;;;;40.33;16.55;;;0.00;99.90;;;;;;5030274;28;20120;-87
2023/01/25 23:46:13;;;;;;;49.20;18.27;;;0.00;99.90;;;;;;4995871;28;20057;-87
2023/01/25 23:48:39;;;;;;;35.30;14.00;;;0.00;99.90;;;;;;5017970;28;20405;-88
2023/01/25 23:51:05;;;;;;;46.40;17.38;;;0.00;99.90;;;;;;5024728;28;20076;-88
2023/01/25 23:53:31;;;;;;;37.53;15.20;;;0.00;99.90;;;;;;5005764;28;20453;-88
2023/01/25 23:56:02;;;;;;;40.88;15.85;;;0.00;99.90;;;;;;5018261;28;20088;-87
2023/01/25 23:58:28;;;;;;;42.23;15.87;;;0.00;99.90;;;;;;5015112;28;20046;-87
